Time;durP1;ratioP1;P1;durP2;ratioP2;P2;SDS_P1;SDS_P2;PMS_P1;PMS_P2;Temp;Humidity;BMP_temperature;BMP_pressure;BME280_temperature;BME280_humidity;BME280_pressure;Samples;Min_cycle;Max_cycle;Signal;HPM_P1;HPM_P2
2022/11/28 00:02:51;;;;;;;29.23;18.23;;;;;;;;;;5003503;28;20597;-79
2022/11/28 00:05:56;;;;;;;28.77;17.47;;;;;;;;;;4992485;28;20605;-78
2022/11/28 00:09:00;;;;;;;29.17;17.30;;;;;;;;;;5003843;28;20542;-78
2022/11/28 00:12:04;;;;;;;31.20;17.97;;;;;;;;;;5003364;28;20632;-78
2022/11/28 00:15:10;;;;;;;35.60;19.57;;;;;;;;;;4991512;28;20550;-78
2022/11/28 00:18:14;;;;;;;31.13;17.80;;;;;;;;;;4991830;28;20545;-79
2022/11/28 00:21:18;;;;;;;31.33;18.23;;;;;;;;;;4992054;28;20624;-79
2022/11/28 00:24:25;;;;;;;30.23;18.27;;;;;;;;;;5002942;28;20609;-78
2022/11/28 00:27:29;;;;;;;31.17;17.83;;;;;;;;;;5002587;28;20538;-78
2022/11/28 00:30:37;;;;;;;30.23;17.80;;;;;;;;;;5002791;28;20554;-78
2022/11/28 00:33:41;;;;;;;30.83;18.27;;;;;;;;;;5002487;28;20545;-78
2022/11/28 00:36:46;;;;;;;30.40;17.80;;;;;;;;;;4991062;28;20541;-78
2022/11/28 00:39:50;;;;;;;30.37;18.17;;;;;;;;;;5000992;28;20956;-78
2022/11/28 00:42:54;;;;;;;36.90;19.87;;;;;;;;;;4988404;28;20537;-77
2022/11/28 00:45:59;;;;;;;30.90;18.70;;;;;;;;;;5000109;28;20597;-80
2022/11/28 00:49:03;;;;;;;32.17;18.63;;;;;;;;;;4998508;28;21097;-77
2022/11/28 00:52:07;;;;;;;32.10;18.93;;;;;;;;;;4977301;28;20628;-79
2022/11/28 00:55:11;;;;;;;32.30;18.77;;;;;;;;;;4992437;28;20613;-79
2022/11/28 00:58:15;;;;;;;32.57;18.80;;;;;;;;;;4980187;28;20577;-79
2022/11/28 01:01:27;;;;;;;28.50;17.47;;;;;;;;;;4991294;28;20633;-79
2022/11/28 01:04:32;;;;;;;31.67;18.70;;;;;;;;;;4991214;28;20549;-79
2022/11/28 01:07:41;;;;;;;31.90;18.70;;;;;;;;;;4989916;28;20601;-79
2022/11/28 01:10:45;;;;;;;37.17;19.77;;;;;;;;;;4989516;28;20613;-79
2022/11/28 01:13:53;;;;;;;38.03;20.60;;;;;;;;;;4989491;28;21108;-79
2022/11/28 01:16:57;;;;;;;38.93;21.67;;;;;;;;;;4964644;28;20550;-78
2022/11/28 01:20:04;;;;;;;33.07;19.23;;;;;;;;;;4975579;28;20609;-78
2022/11/28 01:23:08;;;;;;;30.83;18.23;;;;;;;;;;4986404;28;20549;-79
2022/11/28 01:26:18;;;;;;;33.50;18.77;;;;;;;;;;4975807;28;20209;-78
2022/11/28 01:29:22;;;;;;;33.47;19.13;;;;;;;;;;4986666;28;20178;-79
2022/11/28 01:32:26;;;;;;;32.27;18.33;;;;;;;;;;4986404;28;20217;-79
2022/11/28 01:35:31;;;;;;;33.37;19.87;;;;;;;;;;4987791;28;20182;-79
2022/11/28 01:38:35;;;;;;;37.87;21.80;;;;;;;;;;4987216;28;20554;-78
2022/11/28 01:41:39;;;;;;;32.60;19.07;;;;;;;;;;4963614;28;20213;-78
2022/11/28 01:44:46;;;;;;;34.67;20.43;;;;;;;;;;4974190;28;20198;-78
2022/11/28 01:47:53;;;;;;;35.30;19.83;;;;;;;;;;4974284;28;20542;-78
2022/11/28 01:51:05;;;;;;;40.27;20.70;;;;;;;;;;4963450;28;20636;-78
2022/11/28 01:54:10;;;;;;;37.20;20.07;;;;;;;;;;4986593;28;20596;-79
2022/11/28 01:57:17;;;;;;;39.03;21.07;;;;;;;;;;4987629;28;21096;-79
2022/11/28 02:00:21;;;;;;;39.57;21.30;;;;;;;;;;4987763;28;21081;-79
2022/11/28 02:03:37;;;;;;;37.77;20.53;;;;;;;;;;4988304;28;20910;-79
2022/11/28 02:06:41;;;;;;;31.07;17.97;;;;;;;;;;4988322;28;20598;-79
2022/11/28 02:09:46;;;;;;;29.27;18.20;;;;;;;;;;4987656;28;20182;-79
2022/11/28 02:13:02;;;;;;;35.20;19.97;;;;;;;;;;4987220;28;20186;-78
2022/11/28 02:16:21;;;;;;;35.33;20.27;;;;;;;;;;4965673;28;20174;-79
2022/11/28 02:19:51;;;;;;;31.77;19.20;;;;;;;;;;4998877;28;20186;-79
2022/11/28 02:23:18;;;;;;;34.27;19.80;;;;;;;;;;4999198;28;20553;-79
2022/11/28 02:27:10;;;;;;;35.27;20.10;;;;;;;;;;4964994;28;20214;-79
2022/11/28 02:30:19;;;;;;;35.23;19.50;;;;;;;;;;4955759;28;20653;-78
2022/11/28 02:33:30;;;;;;;35.80;20.10;;;;;;;;;;4990833;28;20182;-79
2022/11/28 02:37:02;;;;;;;32.50;19.90;;;;;;;;;;4990603;28;20182;-78
2022/11/28 02:40:18;;;;;;;30.70;18.73;;;;;;;;;;4967668;28;20205;-79
2022/11/28 02:43:28;;;;;;;34.53;20.57;;;;;;;;;;4989457;28;20190;-78
2022/11/28 02:47:00;;;;;;;32.63;18.07;;;;;;;;;;4967717;28;20937;-79
2022/11/28 02:50:10;;;;;;;32.87;18.83;;;;;;;;;;4967248;28;20542;-78
2022/11/28 02:53:20;;;;;;;34.77;20.03;;;;;;;;;;4977715;28;20187;-78
2022/11/28 02:56:24;;;;;;;34.13;20.13;;;;;;;;;;4988937;28;20183;-78
2022/11/28 02:59:45;;;;;;;33.53;19.27;;;;;;;;;;4988847;28;20518;-78
2022/11/28 03:03:11;;;;;;;33.70;19.90;;;;;;;;;;4988305;28;20182;-78
2022/11/28 03:06:52;;;;;;;37.83;20.37;;;;;;;;;;4966133;28;20210;-78
2022/11/28 03:10:18;;;;;;;31.73;19.40;;;;;;;;;;4976943;28;20597;-78
2022/11/28 03:13:31;;;;;;;29.23;18.33;;;;;;;;;;4978037;28;20541;-78
2022/11/28 03:16:47;;;;;;;33.20;18.87;;;;;;;;;;4988523;28;20601;-78
2022/11/28 03:20:00;;;;;;;32.90;19.10;;;;;;;;;;4988638;28;20549;-78
2022/11/28 03:23:23;;;;;;;35.63;19.90;;;;;;;;;;4988789;28;20549;-78
2022/11/28 03:26:56;;;;;;;32.83;19.20;;;;;;;;;;4966632;28;20601;-80
2022/11/28 03:30:10;;;;;;;33.80;19.00;;;;;;;;;;4965968;28;20545;-79
2022/11/28 03:33:16;;;;;;;32.63;18.70;;;;;;;;;;4989447;28;20542;-78
2022/11/28 03:36:26;;;;;;;33.10;18.00;;;;;;;;;;4989645;28;20605;-79
2022/11/28 03:39:35;;;;;;;33.27;19.93;;;;;;;;;;4976934;28;20605;-78
2022/11/28 03:42:44;;;;;;;33.33;19.83;;;;;;;;;;4988833;28;20640;-78
2022/11/28 03:45:56;;;;;;;32.33;19.27;;;;;;;;;;4977147;28;20194;-78
2022/11/28 03:49:02;;;;;;;35.00;19.53;;;;;;;;;;4988401;28;20534;-78
2022/11/28 03:52:13;;;;;;;37.20;21.13;;;;;;;;;;4977078;28;20632;-79
2022/11/28 03:55:26;;;;;;;33.23;20.27;;;;;;;;;;5000406;28;20628;-79
2022/11/28 03:58:36;;;;;;;35.50;20.77;;;;;;;;;;5028719;28;20552;-79
2022/11/28 04:01:59;;;;;;;36.10;20.40;;;;;;;;;;5017459;28;20628;-79
2022/11/28 04:05:20;;;;;;;36.40;19.97;;;;;;;;;;5026383;28;20545;-79
2022/11/28 04:08:46;;;;;;;34.57;19.53;;;;;;;;;;5026950;28;20534;-79
2022/11/28 04:11:54;;;;;;;37.27;20.93;;;;;;;;;;5014338;28;20628;-79
2022/11/28 04:15:05;;;;;;;36.67;20.37;;;;;;;;;;5014089;28;21106;-79
2022/11/28 04:18:30;;;;;;;35.80;19.77;;;;;;;;;;5022316;28;20534;-78
2022/11/28 04:21:46;;;;;;;36.23;20.63;;;;;;;;;;5002315;28;21212;-79
2022/11/28 04:25:12;;;;;;;35.03;20.23;;;;;;;;;;5025115;28;20565;-79
2022/11/28 04:28:21;;;;;;;40.37;20.63;;;;;;;;;;5026267;28;20588;-79
2022/11/28 04:31:26;;;;;;;37.40;21.17;;;;;;;;;;5027155;28;20635;-79
2022/11/28 04:34:34;;;;;;;36.87;20.77;;;;;;;;;;5015426;28;20541;-80
2022/11/28 04:37:39;;;;;;;36.33;21.17;;;;;;;;;;5017878;28;20541;-79
2022/11/28 04:40:52;;;;;;;38.20;20.47;;;;;;;;;;5029920;28;20651;-79
2022/11/28 04:44:07;;;;;;;38.13;20.53;;;;;;;;;;5016944;28;20541;-81
2022/11/28 04:47:11;;;;;;;35.83;19.70;;;;;;;;;;5028803;28;20597;-79
2022/11/28 04:50:16;;;;;;;32.23;19.30;;;;;;;;;;5002559;28;20605;-79
2022/11/28 04:53:34;;;;;;;32.53;19.20;;;;;;;;;;5006081;28;20604;-79
2022/11/28 04:56:45;;;;;;;35.07;20.00;;;;;;;;;;4994155;28;20186;-79
2022/11/28 04:59:50;;;;;;;36.23;18.77;;;;;;;;;;5005185;28;20542;-79
2022/11/28 05:02:55;;;;;;;31.70;18.00;;;;;;;;;;5004976;28;20201;-79
2022/11/28 05:06:00;;;;;;;32.83;19.30;;;;;;;;;;5004392;28;20608;-79
2022/11/28 05:09:05;;;;;;;33.30;19.67;;;;;;;;;;5005041;28;20193;-79
2022/11/28 05:12:10;;;;;;;34.30;19.13;;;;;;;;;;4993195;28;20692;-79
2022/11/28 05:15:18;;;;;;;33.63;19.47;;;;;;;;;;5003491;28;20545;-79
2022/11/28 05:18:22;;;;;;;30.73;18.03;;;;;;;;;;5003881;28;20177;-79
2022/11/28 05:21:26;;;;;;;34.33;20.03;;;;;;;;;;5014761;28;20624;-79
2022/11/28 05:24:31;;;;;;;30.37;18.87;;;;;;;;;;4999577;28;20186;-79
2022/11/28 05:27:35;;;;;;;33.67;18.93;;;;;;;;;;4998990;28;20205;-79
2022/11/28 05:30:40;;;;;;;29.10;17.63;;;;;;;;;;5010526;28;20217;-80
2022/11/28 05:33:44;;;;;;;28.30;17.73;;;;;;;;;;5009352;28;20181;-79
2022/11/28 05:36:48;;;;;;;34.13;18.97;;;;;;;;;;4998343;28;20185;-79
2022/11/28 05:39:54;;;;;;;31.70;19.13;;;;;;;;;;4998100;28;20221;-79
2022/11/28 05:42:58;;;;;;;33.47;19.20;;;;;;;;;;4987426;28;21070;-79
2022/11/28 05:46:05;;;;;;;28.73;17.77;;;;;;;;;;4987825;28;20541;-79
2022/11/28 05:49:09;;;;;;;30.67;18.23;;;;;;;;;;4986573;28;20533;-79
2022/11/28 05:52:14;;;;;;;33.93;20.37;;;;;;;;;;5037605;23;21052;-80
2022/11/28 05:55:18;;;;;;;32.97;19.60;;;;;;;;;;5046789;28;21206;-80
2022/11/28 05:58:22;;;;;;;33.83;20.27;;;;;;;;;;5034150;28;20546;-80
2022/11/28 06:01:28;;;;;;;38.50;20.67;;;;;;;;;;5026933;28;20974;-80
2022/11/28 06:04:32;;;;;;;37.53;22.13;;;;;;;;;;5028692;28;20574;-80
2022/11/28 06:07:36;;;;;;;38.30;20.53;;;;;;;;;;5047479;28;20598;-80
2022/11/28 06:10:41;;;;;;;34.97;20.03;;;;;;;;;;5034727;28;20634;-80
2022/11/28 06:13:46;;;;;;;35.03;20.80;;;;;;;;;;5058673;28;20200;-80
2022/11/28 06:16:50;;;;;;;32.70;19.77;;;;;;;;;;5058068;28;20176;-80
2022/11/28 06:19:54;;;;;;;31.97;18.80;;;;;;;;;;5058439;28;20535;-80
2022/11/28 06:22:58;;;;;;;31.37;19.10;;;;;;;;;;5045916;28;20187;-80
2022/11/28 06:26:11;;;;;;;31.97;18.87;;;;;;;;;;5047082;28;20565;-80
2022/11/28 06:29:16;;;;;;;30.80;18.80;;;;;;;;;;5046204;28;20540;-80
2022/11/28 06:32:20;;;;;;;28.23;17.87;;;;;;;;;;5046145;28;21179;-80
2022/11/28 06:35:24;;;;;;;31.70;18.80;;;;;;;;;;5045804;28;21081;-79
2022/11/28 06:38:28;;;;;;;31.40;18.27;;;;;;;;;;5046905;28;20543;-80
2022/11/28 06:41:33;;;;;;;32.53;18.97;;;;;;;;;;5047393;28;21186;-80
2022/11/28 06:44:37;;;;;;;30.77;18.97;;;;;;;;;;5035432;28;20543;-80
2022/11/28 06:47:41;;;;;;;31.27;19.07;;;;;;;;;;5058654;28;20595;-80
2022/11/28 06:50:45;;;;;;;29.20;18.70;;;;;;;;;;5058101;28;20622;-80
2022/11/28 06:53:49;;;;;;;33.67;21.13;;;;;;;;;;5057568;28;20539;-80
2022/11/28 06:56:54;;;;;;;34.00;21.33;;;;;;;;;;5046706;28;21156;-80
2022/11/28 06:59:58;;;;;;;33.13;20.37;;;;;;;;;;5045305;28;20540;-80
2022/11/28 07:03:03;;;;;;;30.33;19.20;;;;;;;;;;5057298;28;20590;-80
2022/11/28 07:06:08;;;;;;;31.17;18.87;;;;;;;;;;5058293;28;20543;-81
2022/11/28 07:09:12;;;;;;;30.03;18.70;;;;;;;;;;5058048;28;21172;-80
2022/11/28 07:12:16;;;;;;;29.30;17.47;;;;;;;;;;5034740;28;20622;-81
2022/11/28 07:15:21;;;;;;;29.27;18.63;;;;;;;;;;5062378;28;20530;-81
2022/11/28 07:18:26;;;;;;;27.67;16.77;;;;;;;;;;5062660;28;20917;-81
2022/11/28 07:21:31;;;;;;;29.13;18.13;;;;;;;;;;5050991;28;20626;-81
2022/11/28 07:24:35;;;;;;;26.70;17.40;;;;;;;;;;5038313;28;20873;-81
2022/11/28 07:27:39;;;;;;;27.97;18.33;;;;;;;;;;5049921;28;20591;-81
2022/11/28 07:30:44;;;;;;;26.87;17.47;;;;;;;;;;5064368;28;20622;-80
2022/11/28 07:33:50;;;;;;;27.23;17.23;;;;;;;;;;5065038;28;20555;-81
2022/11/28 07:36:54;;;;;;;30.17;18.53;;;;;;;;;;5040499;28;20185;-81
2022/11/28 07:39:58;;;;;;;28.27;16.97;;;;;;;;;;5052993;28;20519;-81
2022/11/28 07:43:02;;;;;;;27.47;17.43;;;;;;;;;;5051396;28;20882;-81
2022/11/28 07:46:10;;;;;;;24.90;16.00;;;;;;;;;;5051417;28;20558;-80
2022/11/28 07:49:14;;;;;;;26.93;17.00;;;;;;;;;;5053030;28;20216;-81
2022/11/28 07:52:19;;;;;;;27.97;18.07;;;;;;;;;;5030377;28;20643;-81
2022/11/28 07:55:23;;;;;;;27.47;17.50;;;;;;;;;;5030681;28;20540;-81
2022/11/28 07:58:27;;;;;;;27.43;17.23;;;;;;;;;;5031512;28;20900;-81
2022/11/28 08:01:36;;;;;;;28.53;17.70;;;;;;;;;;5031392;28;20638;-81
2022/11/28 08:04:40;;;;;;;31.17;20.20;;;;;;;;;;5021193;28;20189;-81
2022/11/28 08:07:44;;;;;;;27.70;18.53;;;;;;;;;;5006972;28;20212;-81
2022/11/28 08:10:48;;;;;;;30.73;18.97;;;;;;;;;;5021575;28;20216;-81
2022/11/28 08:13:53;;;;;;;30.50;19.03;;;;;;;;;;5030602;28;20181;-81
2022/11/28 08:16:57;;;;;;;32.23;19.30;;;;;;;;;;5040986;28;20181;-81
2022/11/28 08:20:01;;;;;;;29.93;19.10;;;;;;;;;;5026833;28;20176;-81
2022/11/28 08:23:05;;;;;;;30.27;18.67;;;;;;;;;;5016591;28;20176;-82
2022/11/28 08:26:12;;;;;;;29.53;17.20;;;;;;;;;;5025601;28;20173;-81
2022/11/28 08:29:16;;;;;;;31.67;18.73;;;;;;;;;;5027273;28;20212;-82
2022/11/28 08:32:20;;;;;;;31.53;19.13;;;;;;;;;;5016850;28;20220;-81
2022/11/28 08:35:24;;;;;;;31.93;19.20;;;;;;;;;;5027929;28;20177;-82
2022/11/28 08:38:29;;;;;;;29.20;18.60;;;;;;;;;;5017503;28;20173;-81
2022/11/28 08:41:33;;;;;;;31.03;18.30;;;;;;;;;;5039990;28;20560;-81
2022/11/28 08:44:37;;;;;;;30.93;18.93;;;;;;;;;;5017462;28;20181;-81
2022/11/28 08:47:41;;;;;;;28.90;18.03;;;;;;;;;;5027350;28;20220;-81
2022/11/28 08:50:46;;;;;;;29.37;19.20;;;;;;;;;;5015661;28;20216;-81
2022/11/28 08:53:51;;;;;;;28.17;18.37;;;;;;;;;;5015958;28;20204;-81
2022/11/28 08:56:56;;;;;;;32.80;18.83;;;;;;;;;;5041252;28;20181;-81
2022/11/28 09:00:00;;;;;;;31.00;18.07;;;;;;;;;;5039992;28;20181;-81
2022/11/28 09:03:05;;;;;;;26.87;17.03;;;;;;;;;;5017674;28;20676;-81
2022/11/28 09:06:09;;;;;;;26.30;16.97;;;;;;;;;;5019849;28;20200;-81
2022/11/28 09:09:13;;;;;;;27.17;18.00;;;;;;;;;;5019900;28;20224;-81
2022/11/28 09:12:18;;;;;;;28.50;17.13;;;;;;;;;;5020477;28;20213;-80
2022/11/28 09:15:22;;;;;;;28.37;16.67;;;;;;;;;;5019698;28;20176;-81
2022/11/28 09:18:27;;;;;;;27.87;18.40;;;;;;;;;;5018419;28;20177;-81
2022/11/28 09:21:31;;;;;;;28.90;17.27;;;;;;;;;;5045370;28;20571;-81
2022/11/28 09:24:35;;;;;;;28.13;18.17;;;;;;;;;;5037253;28;20536;-81
2022/11/28 09:27:39;;;;;;;26.17;16.73;;;;;;;;;;5045222;28;20662;-81
2022/11/28 09:30:43;;;;;;;25.93;16.83;;;;;;;;;;5044308;28;20219;-81
2022/11/28 09:33:48;;;;;;;24.90;16.70;;;;;;;;;;5044504;28;20184;-80
2022/11/28 09:36:52;;;;;;;25.13;17.00;;;;;;;;;;5028270;28;20185;-81
2022/11/28 09:39:56;;;;;;;26.07;16.70;;;;;;;;;;5028687;28;20177;-81
2022/11/28 09:43:02;;;;;;;25.53;16.73;;;;;;;;;;5028230;28;20184;-81
2022/11/28 09:46:14;;;;;;;24.63;16.63;;;;;;;;;;5027190;28;20200;-81
2022/11/28 09:49:34;;;;;;;26.17;16.27;;;;;;;;;;5039589;28;20212;-81
2022/11/28 09:52:58;;;;;;;24.40;15.93;;;;;;;;;;5028880;28;20220;-81
2022/11/28 09:56:16;;;;;;;26.77;17.43;;;;;;;;;;5039503;28;20181;-81
2022/11/28 09:59:26;;;;;;;24.97;16.40;;;;;;;;;;5030322;28;20185;-79
2022/11/28 10:03:09;;;;;;;22.97;15.67;;;;;;;;;;5036810;28;20224;-78
2022/11/28 10:06:29;;;;;;;22.93;15.50;;;;;;;;;;5050711;28;20173;-81
2022/11/28 10:09:37;;;;;;;24.30;16.40;;;;;;;;;;5040291;28;20234;-81
2022/11/28 10:12:56;;;;;;;24.13;16.17;;;;;;;;;;5037502;28;20521;-81
2022/11/28 10:16:11;;;;;;;24.83;15.60;;;;;;;;;;5037100;28;20181;-82
2022/11/28 10:19:18;;;;;;;26.00;16.00;;;;;;;;;;5037802;28;20181;-82
2022/11/28 10:22:49;;;;;;;24.90;16.03;;;;;;;;;;5038976;28;20216;-81
2022/11/28 10:25:58;;;;;;;23.07;14.97;;;;;;;;;;5049602;28;20173;-81
2022/11/28 10:29:31;;;;;;;24.53;15.63;;;;;;;;;;5029886;28;20212;-81
2022/11/28 10:32:40;;;;;;;21.20;15.00;;;;;;;;;;5036509;28;20212;-81
2022/11/28 10:35:52;;;;;;;21.80;15.53;;;;;;;;;;5025529;28;20181;-81
2022/11/28 10:39:00;;;;;;;23.47;15.50;;;;;;;;;;5036969;28;20201;-82
2022/11/28 10:42:21;;;;;;;21.80;15.20;;;;;;;;;;5025456;28;20220;-82
2022/11/28 10:45:38;;;;;;;23.57;15.10;;;;;;;;;;5036303;28;20181;-82
2022/11/28 10:49:01;;;;;;;20.73;14.27;;;;;;;;;;5028596;28;20208;-81
2022/11/28 10:52:14;;;;;;;21.57;14.87;;;;;;;;;;5030277;28;20220;-81
2022/11/28 10:55:34;;;;;;;20.80;14.43;;;;;;;;;;5030479;28;20177;-82
2022/11/28 10:58:46;;;;;;;22.07;14.90;;;;;;;;;;5020684;28;20181;-82
2022/11/28 11:01:51;;;;;;;20.63;14.70;;;;;;;;;;5032066;28;20221;-82
2022/11/28 11:04:55;;;;;;;19.17;13.20;;;;;;;;;;5041580;28;20181;-82
2022/11/28 11:08:16;;;;;;;22.83;15.27;;;;;;;;;;5019992;28;20177;-82
2022/11/28 11:11:35;;;;;;;21.80;14.13;;;;;;;;;;5031010;28;20224;-79
2022/11/28 11:14:39;;;;;;;19.70;13.83;;;;;;;;;;5019057;28;20181;-78
2022/11/28 11:17:43;;;;;;;18.00;13.50;;;;;;;;;;5026981;28;20196;-79
2022/11/28 11:20:47;;;;;;;19.57;14.03;;;;;;;;;;5027042;28;20544;-79
2022/11/28 11:24:17;;;;;;;19.23;14.23;;;;;;;;;;5027131;28;20762;-79
2022/11/28 11:27:22;;;;;;;23.83;14.70;;;;;;;;;;5015299;28;20177;-78
2022/11/28 11:30:41;;;;;;;21.00;14.73;;;;;;;;;;5037463;28;20208;-78
2022/11/28 11:33:46;;;;;;;21.43;15.23;;;;;;;;;;5038755;28;20185;-78
2022/11/28 11:37:16;;;;;;;24.40;14.80;;;;;;;;;;5027920;28;20181;-78
2022/11/28 11:40:27;;;;;;;22.73;14.93;;;;;;;;;;5028628;28;20177;-78
2022/11/28 11:43:35;;;;;;;22.80;16.30;;;;;;;;;;5039012;28;20200;-79
2022/11/28 11:46:54;;;;;;;22.20;15.73;;;;;;;;;;5004422;28;20524;-77
2022/11/28 11:50:04;;;;;;;20.73;13.93;;;;;;;;;;5024852;28;20205;-76
2022/11/28 11:53:09;;;;;;;18.37;13.80;;;;;;;;;;5024881;28;20204;-76
2022/11/28 11:56:13;;;;;;;21.67;14.63;;;;;;;;;;5025436;28;20180;-77
2022/11/28 11:59:23;;;;;;;19.97;13.83;;;;;;;;;;5023983;28;20172;-76
2022/11/28 12:02:34;;;;;;;18.00;13.47;;;;;;;;;;5012508;28;20217;-76
2022/11/28 12:06:02;;;;;;;19.80;14.40;;;;;;;;;;5012836;28;20192;-76
2022/11/28 12:09:26;;;;;;;21.33;13.70;;;;;;;;;;5060458;22;20569;-78
2022/11/28 12:12:35;;;;;;;19.43;13.73;;;;;;;;;;5049735;28;20212;-79
2022/11/28 12:15:49;;;;;;;18.50;13.90;;;;;;;;;;5081399;28;20203;-79
2022/11/28 12:19:15;;;;;;;21.40;14.80;;;;;;;;;;5053733;28;20180;-79
2022/11/28 12:22:44;;;;;;;18.87;14.03;;;;;;;;;;5070833;28;20215;-78
2022/11/28 12:26:17;;;;;;;22.40;14.60;;;;;;;;;;5061418;28;20191;-78
2022/11/28 12:29:40;;;;;;;19.57;14.03;;;;;;;;;;5058538;28;20208;-79
2022/11/28 12:32:51;;;;;;;20.20;14.17;;;;;;;;;;5058120;28;20176;-79
2022/11/28 12:36:34;;;;;;;16.50;12.37;;;;;;;;;;5035789;28;20180;-79
2022/11/28 12:39:59;;;;;;;16.93;12.70;;;;;;;;;;5045646;28;20172;-79
2022/11/28 12:43:35;;;;;;;20.10;13.27;;;;;;;;;;5045354;28;20185;-80
2022/11/28 12:47:11;;;;;;;21.73;15.20;;;;;;;;;;5031843;28;20180;-79
2022/11/28 12:50:40;;;;;;;21.23;14.47;;;;;;;;;;5043007;28;20212;-79
2022/11/28 12:53:44;;;;;;;20.10;13.70;;;;;;;;;;5044632;28;20179;-78
2022/11/28 12:56:55;;;;;;;19.73;13.50;;;;;;;;;;5037618;28;20180;-79
2022/11/28 13:00:12;;;;;;;20.13;13.97;;;;;;;;;;5044999;28;20173;-79
2022/11/28 13:03:40;;;;;;;21.30;13.83;;;;;;;;;;5055651;28;20176;-79
2022/11/28 13:07:05;;;;;;;18.37;13.73;;;;;;;;;;5068748;28;20172;-79
2022/11/28 13:10:25;;;;;;;18.53;12.53;;;;;;;;;;5056110;28;20220;-79
2022/11/28 13:13:41;;;;;;;19.27;13.77;;;;;;;;;;5045746;28;20188;-79
2022/11/28 13:16:49;;;;;;;21.00;14.23;;;;;;;;;;5045339;28;20176;-79
2022/11/28 13:20:01;;;;;;;20.00;14.43;;;;;;;;;;5068628;28;20172;-79
2022/11/28 13:23:19;;;;;;;19.10;13.40;;;;;;;;;;5056028;28;20180;-79
2022/11/28 13:26:29;;;;;;;20.50;14.53;;;;;;;;;;5044883;28;20192;-78
2022/11/28 13:29:43;;;;;;;25.17;14.33;;;;;;;;;;5047868;28;20208;-79
2022/11/28 13:32:57;;;;;;;20.27;13.47;;;;;;;;;;5080834;28;20183;-79
2022/11/28 13:36:03;;;;;;;17.40;12.57;;;;;;;;;;5068666;28;20195;-79
2022/11/28 13:39:34;;;;;;;18.40;12.77;;;;;;;;;;5072456;28;20188;-79
2022/11/28 13:43:17;;;;;;;18.37;12.80;;;;;;;;;;5063634;28;20219;-79
2022/11/28 13:46:22;;;;;;;18.13;13.23;;;;;;;;;;5070545;28;20538;-79
2022/11/28 13:49:28;;;;;;;20.83;13.40;;;;;;;;;;5086763;28;20215;-79
2022/11/28 13:52:42;;;;;;;20.77;13.30;;;;;;;;;;5063141;28;20222;-80
2022/11/28 13:55:49;;;;;;;19.60;13.67;;;;;;;;;;5071313;28;20188;-80
2022/11/28 13:58:56;;;;;;;19.53;13.17;;;;;;;;;;5054370;28;20195;-79
2022/11/28 14:02:14;;;;;;;19.70;13.20;;;;;;;;;;5046410;28;20211;-80
2022/11/28 14:05:33;;;;;;;17.17;12.83;;;;;;;;;;5042781;28;20196;-80
2022/11/28 14:08:40;;;;;;;17.20;12.47;;;;;;;;;;5077724;28;20199;-78
2022/11/28 14:11:54;;;;;;;17.83;13.00;;;;;;;;;;5058068;28;20207;-80
2022/11/28 14:15:09;;;;;;;18.07;12.63;;;;;;;;;;5067629;28;20578;-79
2022/11/28 14:18:35;;;;;;;19.63;12.70;;;;;;;;;;5071337;28;20183;-78
2022/11/28 14:21:39;;;;;;;22.90;13.83;;;;;;;;;;5055057;28;20215;-79
2022/11/28 14:24:55;;;;;;;19.83;13.40;;;;;;;;;;5053093;28;20179;-78
2022/11/28 14:28:06;;;;;;;20.33;13.33;;;;;;;;;;5044271;28;20188;-79
2022/11/28 14:31:35;;;;;;;17.10;12.90;;;;;;;;;;5034970;28;20559;-79
2022/11/28 14:34:45;;;;;;;17.37;11.83;;;;;;;;;;5036504;28;20180;-79
2022/11/28 14:37:52;;;;;;;17.30;12.30;;;;;;;;;;5043017;28;20195;-79
2022/11/28 14:41:10;;;;;;;18.10;11.53;;;;;;;;;;5057139;28;20216;-78
2022/11/28 14:44:44;;;;;;;17.13;12.30;;;;;;;;;;5050915;28;20180;-79
2022/11/28 14:48:06;;;;;;;16.17;11.77;;;;;;;;;;5025269;28;20177;-79
2022/11/28 14:51:11;;;;;;;23.60;12.83;;;;;;;;;;5035346;28;20227;-79
2022/11/28 14:54:30;;;;;;;16.73;11.83;;;;;;;;;;5024491;28;20184;-79
2022/11/28 14:57:50;;;;;;;17.70;12.40;;;;;;;;;;5048725;28;20181;-78
2022/11/28 15:00:55;;;;;;;17.47;12.57;;;;;;;;;;5051627;28;20215;-78
2022/11/28 15:04:21;;;;;;;19.60;11.90;;;;;;;;;;5042488;28;20196;-78
2022/11/28 15:07:38;;;;;;;19.00;12.27;;;;;;;;;;5067106;28;20179;-78
2022/11/28 15:10:56;;;;;;;20.43;12.53;;;;;;;;;;5046390;28;20699;-78
2022/11/28 15:14:11;;;;;;;16.70;11.67;;;;;;;;;;5045822;28;20516;-77
2022/11/28 15:17:19;;;;;;;18.17;11.73;;;;;;;;;;5023694;28;20184;-78
2022/11/28 15:20:42;;;;;;;21.47;12.70;;;;;;;;;;5034195;28;20173;-78
2022/11/28 15:23:47;;;;;;;22.90;12.37;;;;;;;;;;5047589;28;20643;-78
2022/11/28 15:26:53;;;;;;;22.40;13.00;;;;;;;;;;5046022;28;20192;-78
2022/11/28 15:30:01;;;;;;;17.07;11.77;;;;;;;;;;5046507;28;20219;-78
2022/11/28 15:33:10;;;;;;;17.07;11.77;;;;;;;;;;5047617;28;20177;-78
2022/11/28 15:36:27;;;;;;;15.47;11.63;;;;;;;;;;5057238;28;20199;-78
2022/11/28 15:39:34;;;;;;;17.77;12.03;;;;;;;;;;5082428;28;20176;-79
2022/11/28 15:42:39;;;;;;;20.13;12.17;;;;;;;;;;5047012;28;20559;-79
2022/11/28 15:45:48;;;;;;;16.00;11.37;;;;;;;;;;5040282;28;20646;-78
2022/11/28 15:48:52;;;;;;;17.33;12.30;;;;;;;;;;5069696;28;20192;-78
2022/11/28 15:52:00;;;;;;;18.43;11.50;;;;;;;;;;5064695;28;20219;-78
2022/11/28 15:55:15;;;;;;;18.20;11.47;;;;;;;;;;5066978;28;20187;-79
2022/11/28 15:58:30;;;;;;;18.50;12.33;;;;;;;;;;5067667;28;20649;-78
2022/11/28 16:01:34;;;;;;;19.47;12.20;;;;;;;;;;5065879;28;20208;-78
2022/11/28 16:04:40;;;;;;;22.83;12.60;;;;;;;;;;5074985;28;20176;-80
2022/11/28 16:07:44;;;;;;;16.60;11.57;;;;;;;;;;5074154;28;20175;-79
2022/11/28 16:10:48;;;;;;;21.43;13.87;;;;;;;;;;5083295;28;20223;-80
2022/11/28 16:13:55;;;;;;;21.03;12.60;;;;;;;;;;5066544;28;20180;-77
2022/11/28 16:17:02;;;;;;;18.20;12.23;;;;;;;;;;5079024;28;20179;-77
2022/11/28 16:20:22;;;;;;;22.23;12.93;;;;;;;;;;5063845;28;20520;-77
2022/11/28 16:23:31;;;;;;;18.47;12.27;;;;;;;;;;5047354;28;20177;-78
2022/11/28 16:26:36;;;;;;;19.47;11.63;;;;;;;;;;5059563;28;20184;-79
2022/11/28 16:29:43;;;;;;;17.10;11.70;;;;;;;;;;5035750;28;20200;-78
2022/11/28 16:32:49;;;;;;;17.13;12.13;;;;;;;;;;5047837;28;20200;-80
2022/11/28 16:36:15;;;;;;;17.23;11.57;;;;;;;;;;5064680;28;20207;-78
2022/11/28 16:39:19;;;;;;;18.27;12.70;;;;;;;;;;5078624;28;20199;-77
2022/11/28 16:42:24;;;;;;;17.73;11.50;;;;;;;;;;5074209;28;20227;-77
2022/11/28 16:45:31;;;;;;;18.67;12.23;;;;;;;;;;5047891;28;20203;-77
2022/11/28 16:48:44;;;;;;;18.53;11.83;;;;;;;;;;5078515;28;20176;-77
2022/11/28 16:52:18;;;;;;;17.60;11.97;;;;;;;;;;5077873;28;20231;-77
2022/11/28 16:55:28;;;;;;;16.03;11.47;;;;;;;;;;5045928;28;20185;-77
2022/11/28 16:58:32;;;;;;;22.10;13.17;;;;;;;;;;5057877;28;20180;-78
2022/11/28 17:01:37;;;;;;;17.90;12.30;;;;;;;;;;5045738;28;20207;-77
2022/11/28 17:04:41;;;;;;;17.10;11.53;;;;;;;;;;5058177;28;20632;-77
2022/11/28 17:07:45;;;;;;;17.57;11.93;;;;;;;;;;5034116;28;20172;-77
2022/11/28 17:10:49;;;;;;;18.57;11.77;;;;;;;;;;5057740;28;20231;-77
2022/11/28 17:13:53;;;;;;;22.10;12.73;;;;;;;;;;5057019;28;20176;-76
2022/11/28 17:16:58;;;;;;;21.07;13.47;;;;;;;;;;5056880;28;20180;-76
2022/11/28 17:20:02;;;;;;;22.17;13.87;;;;;;;;;;5073323;28;20195;-78
2022/11/28 17:23:06;;;;;;;20.53;13.03;;;;;;;;;;5064550;28;20176;-77
2022/11/28 17:26:11;;;;;;;19.20;13.40;;;;;;;;;;5065271;28;20184;-78
2022/11/28 17:29:15;;;;;;;22.50;13.23;;;;;;;;;;5054784;28;20179;-77
2022/11/28 17:32:19;;;;;;;21.87;14.07;;;;;;;;;;5064483;28;20227;-77
2022/11/28 17:35:26;;;;;;;24.40;14.27;;;;;;;;;;5065338;28;20642;-78
2022/11/28 17:38:32;;;;;;;27.23;15.53;;;;;;;;;;5077308;28;20179;-78
2022/11/28 17:41:38;;;;;;;30.50;16.33;;;;;;;;;;5065220;28;20202;-77
2022/11/28 17:44:42;;;;;;;30.80;18.33;;;;;;;;;;5075642;28;20664;-78
2022/11/28 17:47:46;;;;;;;29.03;17.80;;;;;;;;;;5061037;28;20199;-78
2022/11/28 17:50:51;;;;;;;19.50;13.10;;;;;;;;;;5065564;28;20231;-78
2022/11/28 17:53:55;;;;;;;22.07;13.23;;;;;;;;;;5063859;28;20200;-76
2022/11/28 17:57:00;;;;;;;19.07;12.33;;;;;;;;;;5073251;28;20187;-78
2022/11/28 18:00:06;;;;;;;17.40;11.80;;;;;;;;;;5062687;28;20191;-76
2022/11/28 18:03:18;;;;;;;17.80;12.07;;;;;;;;;;5076306;28;20662;-77
2022/11/28 18:06:22;;;;;;;19.43;11.57;;;;;;;;;;5055324;28;20180;-76
2022/11/28 18:09:28;;;;;;;15.83;11.30;;;;;;;;;;5077718;22;20212;-77
2022/11/28 18:12:32;;;;;;;17.17;11.23;;;;;;;;;;5020775;28;20240;-77
2022/11/28 18:15:38;;;;;;;16.77;11.53;;;;;;;;;;5021960;28;20524;-77
2022/11/28 18:18:42;;;;;;;15.23;11.03;;;;;;;;;;5033046;28;20177;-78
2022/11/28 18:21:46;;;;;;;18.80;12.27;;;;;;;;;;4999278;28;20217;-77
2022/11/28 18:24:51;;;;;;;15.77;10.53;;;;;;;;;;5021509;28;20173;-77
2022/11/28 18:27:55;;;;;;;18.27;11.93;;;;;;;;;;5034935;28;20677;-79